sensor_id;sensor_type;location;lat;lon;timestamp;P1;durP1;ratioP1;P2;durP2;ratioP2
25139;SDS011;39015;48.106;-1.682;2023-02-28T06:51:26;2.63;;;2.05;;
25139;SDS011;39015;48.106;-1.682;2023-02-28T06:53:53;3.50;;;2.17;;
25139;SDS011;39015;48.106;-1.682;2023-02-28T06:56:20;3.83;;;2.00;;
25139;SDS011;39015;48.106;-1.682;2023-02-28T06:58:48;3.13;;;2.30;;
25139;SDS011;39015;48.106;-1.682;2023-02-28T07:01:15;4.10;;;2.40;;
25139;SDS011;39015;48.106;-1.682;2023-02-28T07:03:44;5.53;;;2.47;;
25139;SDS011;39015;48.106;-1.682;2023-02-28T07:06:11;4.85;;;2.58;;
25139;SDS011;39015;48.106;-1.682;2023-02-28T07:08:39;3.33;;;2.10;;
25139;SDS011;39015;48.106;-1.682;2023-02-28T07:11:06;3.60;;;2.40;;
25139;SDS011;39015;48.106;-1.682;2023-02-28T07:13:33;4.93;;;2.67;;
25139;SDS011;39015;48.106;-1.682;2023-02-28T07:16:01;6.65;;;2.88;;
25139;SDS011;39015;48.106;-1.682;2023-02-28T07:18:29;2.47;;;1.95;;
25139;SDS011;39015;48.106;-1.682;2023-02-28T07:20:57;6.72;;;2.47;;
25139;SDS011;39015;48.106;-1.682;2023-02-28T07:23:24;6.38;;;2.85;;
25139;SDS011;39015;48.106;-1.682;2023-02-28T07:25:52;5.13;;;2.70;;
25139;SDS011;39015;48.106;-1.682;2023-02-28T07:28:21;3.13;;;2.40;;
25139;SDS011;39015;48.106;-1.682;2023-02-28T07:30:50;3.35;;;2.53;;
25139;SDS011;39015;48.106;-1.682;2023-02-28T07:33:17;8.68;;;2.08;;
25139;SDS011;39015;48.106;-1.682;2023-02-28T07:35:45;3.28;;;2.30;;
25139;SDS011;39015;48.106;-1.682;2023-02-28T07:38:12;2.55;;;2.00;;
25139;SDS011;39015;48.106;-1.682;2023-02-28T07:40:39;4.43;;;2.13;;
25139;SDS011;39015;48.106;-1.682;2023-02-28T07:43:08;3.80;;;2.08;;
25139;SDS011;39015;48.106;-1.682;2023-02-28T07:45:35;3.55;;;2.22;;
25139;SDS011;39015;48.106;-1.682;2023-02-28T07:48:02;4.22;;;2.88;;
25139;SDS011;39015;48.106;-1.682;2023-02-28T07:50:29;5.47;;;2.60;;
25139;SDS011;39015;48.106;-1.682;2023-02-28T07:52:57;10.30;;;3.67;;
25139;SDS011;39015;48.106;-1.682;2023-02-28T07:55:24;4.72;;;2.45;;
25139;SDS011;39015;48.106;-1.682;2023-02-28T07:57:56;5.05;;;2.95;;
25139;SDS011;39015;48.106;-1.682;2023-02-28T08:00:30;3.13;;;2.42;;
25139;SDS011;39015;48.106;-1.682;2023-02-28T08:02:57;5.90;;;2.58;;
25139;SDS011;39015;48.106;-1.682;2023-02-28T08:05:25;4.60;;;2.70;;
25139;SDS011;39015;48.106;-1.682;2023-02-28T08:07:52;6.80;;;2.85;;
25139;SDS011;39015;48.106;-1.682;2023-02-28T08:10:19;3.35;;;2.67;;
25139;SDS011;39015;48.106;-1.682;2023-02-28T08:12:46;5.20;;;3.10;;
25139;SDS011;39015;48.106;-1.682;2023-02-28T08:15:14;5.45;;;3.33;;
25139;SDS011;39015;48.106;-1.682;2023-02-28T08:17:42;5.68;;;2.67;;
25139;SDS011;39015;48.106;-1.682;2023-02-28T08:20:10;4.57;;;2.50;;
25139;SDS011;39015;48.106;-1.682;2023-02-28T08:22:37;4.70;;;3.15;;
25139;SDS011;39015;48.106;-1.682;2023-02-28T08:25:05;7.50;;;3.28;;
25139;SDS011;39015;48.106;-1.682;2023-02-28T08:27:32;9.02;;;3.78;;
25139;SDS011;39015;48.106;-1.682;2023-02-28T08:30:00;7.93;;;3.22;;
25139;SDS011;39015;48.106;-1.682;2023-02-28T08:32:28;6.05;;;2.47;;
25139;SDS011;39015;48.106;-1.682;2023-02-28T08:34:56;4.20;;;3.05;;
25139;SDS011;39015;48.106;-1.682;2023-02-28T08:37:23;7.60;;;3.93;;
25139;SDS011;39015;48.106;-1.682;2023-02-28T08:39:51;4.32;;;2.75;;
25139;SDS011;39015;48.106;-1.682;2023-02-28T08:42:18;9.03;;;3.50;;
25139;SDS011;39015;48.106;-1.682;2023-02-28T08:44:45;7.85;;;3.63;;
25139;SDS011;39015;48.106;-1.682;2023-02-28T08:47:13;7.13;;;3.17;;
25139;SDS011;39015;48.106;-1.682;2023-02-28T08:49:40;7.13;;;3.88;;
25139;SDS011;39015;48.106;-1.682;2023-02-28T08:52:08;5.40;;;2.95;;
25139;SDS011;39015;48.106;-1.682;2023-02-28T08:54:36;5.30;;;3.05;;
25139;SDS011;39015;48.106;-1.682;2023-02-28T08:57:03;6.00;;;3.25;;
25139;SDS011;39015;48.106;-1.682;2023-02-28T08:59:30;4.75;;;3.30;;
25139;SDS011;39015;48.106;-1.682;2023-02-28T09:01:58;4.80;;;2.83;;
25139;SDS011;39015;48.106;-1.682;2023-02-28T09:04:25;4.95;;;3.22;;
25139;SDS011;39015;48.106;-1.682;2023-02-28T09:06:52;4.55;;;2.72;;
25139;SDS011;39015;48.106;-1.682;2023-02-28T09:09:22;6.05;;;3.42;;
25139;SDS011;39015;48.106;-1.682;2023-02-28T09:11:49;6.45;;;2.80;;
25139;SDS011;39015;48.106;-1.682;2023-02-28T09:14:16;5.10;;;2.65;;
25139;SDS011;39015;48.106;-1.682;2023-02-28T09:16:43;7.05;;;3.13;;
25139;SDS011;39015;48.106;-1.682;2023-02-28T09:19:10;6.05;;;2.83;;
25139;SDS011;39015;48.106;-1.682;2023-02-28T09:21:38;4.43;;;2.55;;
25139;SDS011;39015;48.106;-1.682;2023-02-28T09:24:05;3.72;;;2.78;;
25139;SDS011;39015;48.106;-1.682;2023-02-28T09:26:34;3.22;;;2.17;;
25139;SDS011;39015;48.106;-1.682;2023-02-28T09:29:01;4.33;;;2.87;;
25139;SDS011;39015;48.106;-1.682;2023-02-28T09:31:29;11.73;;;2.33;;
25139;SDS011;39015;48.106;-1.682;2023-02-28T09:33:56;4.00;;;2.90;;
25139;SDS011;39015;48.106;-1.682;2023-02-28T09:36:24;4.00;;;2.28;;
25139;SDS011;39015;48.106;-1.682;2023-02-28T09:38:53;4.97;;;2.70;;
25139;SDS011;39015;48.106;-1.682;2023-02-28T09:41:21;5.03;;;2.03;;
25139;SDS011;39015;48.106;-1.682;2023-02-28T09:43:52;4.93;;;2.75;;
25139;SDS011;39015;48.106;-1.682;2023-02-28T09:46:27;3.30;;;2.03;;
25139;SDS011;39015;48.106;-1.682;2023-02-28T09:48:58;5.05;;;2.65;;
25139;SDS011;39015;48.106;-1.682;2023-02-28T09:51:33;6.68;;;2.72;;
25139;SDS011;39015;48.106;-1.682;2023-02-28T09:56:44;2.05;;;1.55;;
25139;SDS011;39015;48.106;-1.682;2023-02-28T09:59:17;5.22;;;2.80;;
25139;SDS011;39015;48.106;-1.682;2023-02-28T10:01:54;6.90;;;2.53;;
25139;SDS011;39015;48.106;-1.682;2023-02-28T10:04:34;4.95;;;2.70;;
25139;SDS011;39015;48.106;-1.682;2023-02-28T10:07:11;5.55;;;2.20;;
25139;SDS011;39015;48.106;-1.682;2023-02-28T10:09:47;6.10;;;3.05;;
25139;SDS011;39015;48.106;-1.682;2023-02-28T10:12:18;5.68;;;2.08;;
25139;SDS011;39015;48.106;-1.682;2023-02-28T10:14:49;3.40;;;2.10;;
25139;SDS011;39015;48.106;-1.682;2023-02-28T10:17:19;4.60;;;1.98;;
25139;SDS011;39015;48.106;-1.682;2023-02-28T10:19:52;2.33;;;1.45;;
25139;SDS011;39015;48.106;-1.682;2023-02-28T10:22:26;3.03;;;2.22;;
25139;SDS011;39015;48.106;-1.682;2023-02-28T10:25:00;2.65;;;1.45;;
25139;SDS011;39015;48.106;-1.682;2023-02-28T10:27:29;2.13;;;1.55;;
25139;SDS011;39015;48.106;-1.682;2023-02-28T10:29:59;3.55;;;1.95;;
25139;SDS011;39015;48.106;-1.682;2023-02-28T10:32:28;3.47;;;1.95;;
25139;SDS011;39015;48.106;-1.682;2023-02-28T10:34:59;4.03;;;2.08;;
25139;SDS011;39015;48.106;-1.682;2023-02-28T10:37:27;4.97;;;2.08;;
25139;SDS011;39015;48.106;-1.682;2023-02-28T10:39:54;3.50;;;1.75;;
25139;SDS011;39015;48.106;-1.682;2023-02-28T10:42:23;3.15;;;2.00;;
25139;SDS011;39015;48.106;-1.682;2023-02-28T10:45:11;2.17;;;1.60;;
25139;SDS011;39015;48.106;-1.682;2023-02-28T10:47:42;2.78;;;1.95;;
25139;SDS011;39015;48.106;-1.682;2023-02-28T10:50:27;1.58;;;1.20;;
25139;SDS011;39015;48.106;-1.682;2023-02-28T10:53:23;2.92;;;1.58;;
25139;SDS011;39015;48.106;-1.682;2023-02-28T10:56:03;3.22;;;1.60;;
25139;SDS011;39015;48.106;-1.682;2023-02-28T10:58:44;1.52;;;1.42;;
25139;SDS011;39015;48.106;-1.682;2023-02-28T11:01:23;2.22;;;1.40;;
25139;SDS011;39015;48.106;-1.682;2023-02-28T11:03:52;4.05;;;2.22;;
25139;SDS011;39015;48.106;-1.682;2023-02-28T11:06:20;2.93;;;1.60;;
25139;SDS011;39015;48.106;-1.682;2023-02-28T11:08:51;2.42;;;1.25;;
25139;SDS011;39015;48.106;-1.682;2023-02-28T11:11:20;1.48;;;1.38;;
25139;SDS011;39015;48.106;-1.682;2023-02-28T11:13:50;1.95;;;1.30;;
25139;SDS011;39015;48.106;-1.682;2023-02-28T11:16:20;6.50;;;2.28;;
25139;SDS011;39015;48.106;-1.682;2023-02-28T11:18:57;2.03;;;1.02;;
25139;SDS011;39015;48.106;-1.682;2023-02-28T11:21:26;2.78;;;1.70;;
25139;SDS011;39015;48.106;-1.682;2023-02-28T11:23:58;1.33;;;1.10;;
25139;SDS011;39015;48.106;-1.682;2023-02-28T11:26:38;1.67;;;1.25;;
25139;SDS011;39015;48.106;-1.682;2023-02-28T11:29:12;2.25;;;1.73;;
25139;SDS011;39015;48.106;-1.682;2023-02-28T11:34:40;3.10;;;1.20;;
25139;SDS011;39015;48.106;-1.682;2023-02-28T11:37:11;1.60;;;1.27;;
25139;SDS011;39015;48.106;-1.682;2023-02-28T11:39:39;3.33;;;1.27;;
25139;SDS011;39015;48.106;-1.682;2023-02-28T11:42:10;1.85;;;1.08;;
25139;SDS011;39015;48.106;-1.682;2023-02-28T11:44:59;1.30;;;1.20;;
25139;SDS011;39015;48.106;-1.682;2023-02-28T11:47:42;2.83;;;0.93;;
25139;SDS011;39015;48.106;-1.682;2023-02-28T11:50:22;1.98;;;1.40;;
25139;SDS011;39015;48.106;-1.682;2023-02-28T11:53:05;0.63;;;0.63;;
25139;SDS011;39015;48.106;-1.682;2023-02-28T11:55:41;1.85;;;1.02;;
25139;SDS011;39015;48.106;-1.682;2023-02-28T11:58:17;3.53;;;1.45;;
25139;SDS011;39015;48.106;-1.682;2023-02-28T12:00:56;1.05;;;0.95;;
25139;SDS011;39015;48.106;-1.682;2023-02-28T12:03:34;1.50;;;0.95;;
25139;SDS011;39015;48.106;-1.682;2023-02-28T12:06:15;1.05;;;0.70;;
25139;SDS011;39015;48.106;-1.682;2023-02-28T12:11:45;1.00;;;0.90;;
25139;SDS011;39015;48.106;-1.682;2023-02-28T12:17:20;1.10;;;0.95;;
25139;SDS011;39015;48.106;-1.682;2023-02-28T12:19:59;1.90;;;1.20;;
25139;SDS011;39015;48.106;-1.682;2023-02-28T12:22:37;1.60;;;1.13;;
25139;SDS011;39015;48.106;-1.682;2023-02-28T12:28:13;3.67;;;1.50;;
25139;SDS011;39015;48.106;-1.682;2023-02-28T12:30:47;1.77;;;1.00;;
25139;SDS011;39015;48.106;-1.682;2023-02-28T12:33:17;2.58;;;1.27;;
25139;SDS011;39015;48.106;-1.682;2023-02-28T12:35:53;1.20;;;0.98;;
25139;SDS011;39015;48.106;-1.682;2023-02-28T12:38:25;1.45;;;0.90;;
25139;SDS011;39015;48.106;-1.682;2023-02-28T12:40:55;1.52;;;0.90;;
25139;SDS011;39015;48.106;-1.682;2023-02-28T12:43:27;2.08;;;1.05;;
25139;SDS011;39015;48.106;-1.682;2023-02-28T12:46:00;2.63;;;1.38;;
25139;SDS011;39015;48.106;-1.682;2023-02-28T12:48:37;2.47;;;1.08;;
25139;SDS011;39015;48.106;-1.682;2023-02-28T12:51:08;1.80;;;1.30;;
25139;SDS011;39015;48.106;-1.682;2023-02-28T12:53:41;1.90;;;1.15;;
25139;SDS011;39015;48.106;-1.682;2023-02-28T12:56:21;1.30;;;1.20;;
25139;SDS011;39015;48.106;-1.682;2023-02-28T12:58:56;0.85;;;0.80;;
25139;SDS011;39015;48.106;-1.682;2023-02-28T13:01:42;2.03;;;0.98;;
25139;SDS011;39015;48.106;-1.682;2023-02-28T13:04:33;1.00;;;0.80;;
25139;SDS011;39015;48.106;-1.682;2023-02-28T13:10:04;1.13;;;1.02;;
25139;SDS011;39015;48.106;-1.682;2023-02-28T13:12:33;3.13;;;1.00;;
25139;SDS011;39015;48.106;-1.682;2023-02-28T13:17:49;1.85;;;1.50;;
25139;SDS011;39015;48.106;-1.682;2023-02-28T13:20:19;1.75;;;0.93;;
25139;SDS011;39015;48.106;-1.682;2023-02-28T13:22:48;2.20;;;1.38;;
25139;SDS011;39015;48.106;-1.682;2023-02-28T13:34:36;0.60;;;0.60;;
25139;SDS011;39015;48.106;-1.682;2023-02-28T13:43:07;1.27;;;1.17;;
25139;SDS011;39015;48.106;-1.682;2023-02-28T13:45:39;1.20;;;1.10;;
25139;SDS011;39015;48.106;-1.682;2023-02-28T13:48:42;1.65;;;1.33;;
25139;SDS011;39015;48.106;-1.682;2023-02-28T13:54:17;0.77;;;0.77;;
25139;SDS011;39015;48.106;-1.682;2023-02-28T13:57:09;2.13;;;1.27;;
25139;SDS011;39015;48.106;-1.682;2023-02-28T13:59:50;1.48;;;1.05;;
25139;SDS011;39015;48.106;-1.682;2023-02-28T14:02:34;1.88;;;1.00;;
25139;SDS011;39015;48.106;-1.682;2023-02-28T14:05:31;1.00;;;0.90;;
25139;SDS011;39015;48.106;-1.682;2023-02-28T14:08:03;1.23;;;0.80;;
25139;SDS011;39015;48.106;-1.682;2023-02-28T14:10:34;1.85;;;0.70;;
25139;SDS011;39015;48.106;-1.682;2023-02-28T14:13:11;1.50;;;0.90;;
25139;SDS011;39015;48.106;-1.682;2023-02-28T14:15:45;2.63;;;0.70;;
25139;SDS011;39015;48.106;-1.682;2023-02-28T14:18:21;2.72;;;1.15;;
25139;SDS011;39015;48.106;-1.682;2023-02-28T14:20:52;1.02;;;0.70;;
25139;SDS011;39015;48.106;-1.682;2023-02-28T14:23:34;0.70;;;0.70;;
25139;SDS011;39015;48.106;-1.682;2023-02-28T14:26:33;1.02;;;0.90;;
25139;SDS011;39015;48.106;-1.682;2023-02-28T14:29:18;1.38;;;0.80;;
25139;SDS011;39015;48.106;-1.682;2023-02-28T14:32:02;0.90;;;0.90;;
25139;SDS011;39015;48.106;-1.682;2023-02-28T14:34:40;0.93;;;0.80;;
25139;SDS011;39015;48.106;-1.682;2023-02-28T14:37:14;1.38;;;0.80;;
25139;SDS011;39015;48.106;-1.682;2023-02-28T14:39:45;0.68;;;0.63;;
25139;SDS011;39015;48.106;-1.682;2023-02-28T14:44:56;0.82;;;0.80;;
25139;SDS011;39015;48.106;-1.682;2023-02-28T14:47:25;1.00;;;0.70;;
25139;SDS011;39015;48.106;-1.682;2023-02-28T14:49:54;1.60;;;1.17;;
25139;SDS011;39015;48.106;-1.682;2023-02-28T14:52:24;1.65;;;0.90;;
25139;SDS011;39015;48.106;-1.682;2023-02-28T14:54:55;0.63;;;0.60;;
25139;SDS011;39015;48.106;-1.682;2023-02-28T14:57:26;0.90;;;0.82;;
25139;SDS011;39015;48.106;-1.682;2023-02-28T14:59:59;0.73;;;0.73;;
25139;SDS011;39015;48.106;-1.682;2023-02-28T15:02:34;0.95;;;0.82;;
25139;SDS011;39015;48.106;-1.682;2023-02-28T15:05:02;4.45;;;1.30;;
25139;SDS011;39015;48.106;-1.682;2023-02-28T15:07:47;4.10;;;1.55;;
25139;SDS011;39015;48.106;-1.682;2023-02-28T15:10:22;2.10;;;1.02;;
25139;SDS011;39015;48.106;-1.682;2023-02-28T15:12:53;2.42;;;0.82;;
25139;SDS011;39015;48.106;-1.682;2023-02-28T15:15:30;1.35;;;0.95;;
25139;SDS011;39015;48.106;-1.682;2023-02-28T15:18:22;1.55;;;1.00;;
25139;SDS011;39015;48.106;-1.682;2023-02-28T15:20:56;1.85;;;0.90;;
25139;SDS011;39015;48.106;-1.682;2023-02-28T15:23:25;1.25;;;1.13;;
25139;SDS011;39015;48.106;-1.682;2023-02-28T15:25:52;1.33;;;1.05;;
25139;SDS011;39015;48.106;-1.682;2023-02-28T15:28:20;0.90;;;0.90;;
25139;SDS011;39015;48.106;-1.682;2023-02-28T15:30:51;1.17;;;1.13;;
25139;SDS011;39015;48.106;-1.682;2023-02-28T15:33:22;1.02;;;0.95;;
25139;SDS011;39015;48.106;-1.682;2023-02-28T15:35:50;0.88;;;0.88;;
25139;SDS011;39015;48.106;-1.682;2023-02-28T15:38:21;0.93;;;0.85;;
25139;SDS011;39015;48.106;-1.682;2023-02-28T15:40:51;2.17;;;1.00;;
25139;SDS011;39015;48.106;-1.682;2023-02-28T15:43:26;0.98;;;0.90;;
25139;SDS011;39015;48.106;-1.682;2023-02-28T15:45:56;2.25;;;0.90;;
25139;SDS011;39015;48.106;-1.682;2023-02-28T15:48:28;3.10;;;1.27;;
25139;SDS011;39015;48.106;-1.682;2023-02-28T15:50:57;1.58;;;1.48;;
25139;SDS011;39015;48.106;-1.682;2023-02-28T15:53:32;2.67;;;1.77;;
25139;SDS011;39015;48.106;-1.682;2023-02-28T15:56:03;1.10;;;0.90;;
25139;SDS011;39015;48.106;-1.682;2023-02-28T15:58:33;1.42;;;0.95;;
25139;SDS011;39015;48.106;-1.682;2023-02-28T16:03:37;0.82;;;0.82;;
25139;SDS011;39015;48.106;-1.682;2023-02-28T16:08:58;1.90;;;1.08;;
25139;SDS011;39015;48.106;-1.682;2023-02-28T16:11:25;1.20;;;1.02;;
25139;SDS011;39015;48.106;-1.682;2023-02-28T16:13:53;2.03;;;1.65;;
25139;SDS011;39015;48.106;-1.682;2023-02-28T16:16:21;2.75;;;1.35;;
25139;SDS011;39015;48.106;-1.682;2023-02-28T16:18:51;13.15;;;1.83;;
25139;SDS011;39015;48.106;-1.682;2023-02-28T16:21:19;1.75;;;1.05;;
25139;SDS011;39015;48.106;-1.682;2023-02-28T16:23:46;2.20;;;1.38;;
25139;SDS011;39015;48.106;-1.682;2023-02-28T16:26:16;2.78;;;1.13;;
25139;SDS011;39015;48.106;-1.682;2023-02-28T16:28:47;2.33;;;1.63;;
25139;SDS011;39015;48.106;-1.682;2023-02-28T16:31:15;3.05;;;1.75;;
25139;SDS011;39015;48.106;-1.682;2023-02-28T16:33:43;3.87;;;1.40;;
25139;SDS011;39015;48.106;-1.682;2023-02-28T16:36:16;2.78;;;1.30;;
25139;SDS011;39015;48.106;-1.682;2023-02-28T16:38:44;2.30;;;1.33;;
25139;SDS011;39015;48.106;-1.682;2023-02-28T16:41:16;3.38;;;1.80;;
25139;SDS011;39015;48.106;-1.682;2023-02-28T16:43:47;1.40;;;1.30;;
25139;SDS011;39015;48.106;-1.682;2023-02-28T16:46:16;1.50;;;1.40;;
25139;SDS011;39015;48.106;-1.682;2023-02-28T16:48:43;2.33;;;1.42;;
25139;SDS011;39015;48.106;-1.682;2023-02-28T16:51:11;3.70;;;1.42;;
25139;SDS011;39015;48.106;-1.682;2023-02-28T16:53:43;2.30;;;2.03;;
25139;SDS011;39015;48.106;-1.682;2023-02-28T16:56:13;3.60;;;2.10;;
25139;SDS011;39015;48.106;-1.682;2023-02-28T16:58:42;1.83;;;1.50;;
25139;SDS011;39015;48.106;-1.682;2023-02-28T17:01:09;1.83;;;1.38;;
25139;SDS011;39015;48.106;-1.682;2023-02-28T17:03:37;1.73;;;1.40;;
25139;SDS011;39015;48.106;-1.682;2023-02-28T17:06:05;3.50;;;1.70;;
25139;SDS011;39015;48.106;-1.682;2023-02-28T17:08:34;2.88;;;1.33;;
25139;SDS011;39015;48.106;-1.682;2023-02-28T17:11:03;2.38;;;1.67;;
25139;SDS011;39015;48.106;-1.682;2023-02-28T17:13:35;2.60;;;1.73;;
25139;SDS011;39015;48.106;-1.682;2023-02-28T17:16:02;2.70;;;1.30;;
25139;SDS011;39015;48.106;-1.682;2023-02-28T17:18:29;4.03;;;1.60;;
25139;SDS011;39015;48.106;-1.682;2023-02-28T17:20:58;1.77;;;1.35;;
25139;SDS011;39015;48.106;-1.682;2023-02-28T17:23:25;4.68;;;2.08;;
25139;SDS011;39015;48.106;-1.682;2023-02-28T17:25:53;1.95;;;1.38;;
25139;SDS011;39015;48.106;-1.682;2023-02-28T17:28:21;3.03;;;1.45;;
25139;SDS011;39015;48.106;-1.682;2023-02-28T17:30:48;2.78;;;1.98;;
25139;SDS011;39015;48.106;-1.682;2023-02-28T17:33:16;2.13;;;1.45;;
25139;SDS011;39015;48.106;-1.682;2023-02-28T17:35:43;4.65;;;1.95;;
25139;SDS011;39015;48.106;-1.682;2023-02-28T17:38:14;2.42;;;1.35;;
25139;SDS011;39015;48.106;-1.682;2023-02-28T17:40:43;1.77;;;1.48;;
25139;SDS011;39015;48.106;-1.682;2023-02-28T17:43:10;2.30;;;1.92;;
25139;SDS011;39015;48.106;-1.682;2023-02-28T17:45:39;2.17;;;1.58;;
25139;SDS011;39015;48.106;-1.682;2023-02-28T17:48:06;2.60;;;1.75;;
25139;SDS011;39015;48.106;-1.682;2023-02-28T17:50:35;1.75;;;1.60;;
25139;SDS011;39015;48.106;-1.682;2023-02-28T17:53:03;2.03;;;1.67;;
25139;SDS011;39015;48.106;-1.682;2023-02-28T17:55:31;1.70;;;1.27;;
25139;SDS011;39015;48.106;-1.682;2023-02-28T17:57:58;4.25;;;2.28;;
25139;SDS011;39015;48.106;-1.682;2023-02-28T18:00:25;3.90;;;2.42;;
25139;SDS011;39015;48.106;-1.682;2023-02-28T18:02:54;3.03;;;1.73;;
25139;SDS011;39015;48.106;-1.682;2023-02-28T18:05:21;2.72;;;1.92;;
25139;SDS011;39015;48.106;-1.682;2023-02-28T18:07:49;3.50;;;2.25;;
25139;SDS011;39015;48.106;-1.682;2023-02-28T18:12:45;2.47;;;1.95;;
25139;SDS011;39015;48.106;-1.682;2023-02-28T18:15:13;3.08;;;2.25;;
25139;SDS011;39015;48.106;-1.682;2023-02-28T18:17:40;2.53;;;1.98;;
25139;SDS011;39015;48.106;-1.682;2023-02-28T18:20:09;2.65;;;2.08;;
25139;SDS011;39015;48.106;-1.682;2023-02-28T18:22:37;2.90;;;1.70;;
25139;SDS011;39015;48.106;-1.682;2023-02-28T18:25:06;3.67;;;2.15;;
25139;SDS011;39015;48.106;-1.682;2023-02-28T18:27:35;3.67;;;1.95;;
25139;SDS011;39015;48.106;-1.682;2023-02-28T18:30:02;4.43;;;2.85;;
25139;SDS011;39015;48.106;-1.682;2023-02-28T18:32:30;4.30;;;2.50;;
25139;SDS011;39015;48.106;-1.682;2023-02-28T18:34:57;3.78;;;2.42;;
25139;SDS011;39015;48.106;-1.682;2023-02-28T18:37:26;3.28;;;2.15;;
25139;SDS011;39015;48.106;-1.682;2023-02-28T18:39:53;2.38;;;1.90;;
25139;SDS011;39015;48.106;-1.682;2023-02-28T18:42:19;4.65;;;2.47;;
25139;SDS011;39015;48.106;-1.682;2023-02-28T18:44:46;3.15;;;1.98;;
25139;SDS011;39015;48.106;-1.682;2023-02-28T18:47:13;1.92;;;1.58;;
25139;SDS011;39015;48.106;-1.682;2023-02-28T18:49:40;4.57;;;2.17;;
25139;SDS011;39015;48.106;-1.682;2023-02-28T18:52:07;2.70;;;1.90;;
25139;SDS011;39015;48.106;-1.682;2023-02-28T18:54:36;2.45;;;1.85;;
25139;SDS011;39015;48.106;-1.682;2023-02-28T18:57:03;4.05;;;2.00;;
25139;SDS011;39015;48.106;-1.682;2023-02-28T18:59:30;4.30;;;2.03;;
25139;SDS011;39015;48.106;-1.682;2023-02-28T19:01:57;6.18;;;2.40;;
25139;SDS011;39015;48.106;-1.682;2023-02-28T19:04:24;2.60;;;1.70;;
25139;SDS011;39015;48.106;-1.682;2023-02-28T19:06:51;3.00;;;1.70;;
25139;SDS011;39015;48.106;-1.682;2023-02-28T19:09:18;4.53;;;1.90;;
25139;SDS011;39015;48.106;-1.682;2023-02-28T19:11:48;3.78;;;1.77;;
25139;SDS011;39015;48.106;-1.682;2023-02-28T19:14:16;4.03;;;1.80;;
25139;SDS011;39015;48.106;-1.682;2023-02-28T19:16:43;2.92;;;1.67;;
25139;SDS011;39015;48.106;-1.682;2023-02-28T19:19:11;1.75;;;1.58;;
25139;SDS011;39015;48.106;-1.682;2023-02-28T19:21:38;3.13;;;1.83;;
25139;SDS011;39015;48.106;-1.682;2023-02-28T19:24:05;2.75;;;1.67;;
25139;SDS011;39015;48.106;-1.682;2023-02-28T19:26:38;9.05;;;1.95;;
25139;SDS011;39015;48.106;-1.682;2023-02-28T19:29:08;2.05;;;1.40;;
25139;SDS011;39015;48.106;-1.682;2023-02-28T19:31:36;1.48;;;1.33;;
25139;SDS011;39015;48.106;-1.682;2023-02-28T19:34:03;2.83;;;1.50;;
25139;SDS011;39015;48.106;-1.682;2023-02-28T19:36:31;1.93;;;1.40;;
25139;SDS011;39015;48.106;-1.682;2023-02-28T19:39:00;3.05;;;1.42;;
25139;SDS011;39015;48.106;-1.682;2023-02-28T19:41:28;2.25;;;1.67;;
25139;SDS011;39015;48.106;-1.682;2023-02-28T19:43:57;3.83;;;1.60;;
25139;SDS011;39015;48.106;-1.682;2023-02-28T19:46:34;2.83;;;1.65;;
25139;SDS011;39015;48.106;-1.682;2023-02-28T19:49:06;1.58;;;1.35;;
25139;SDS011;39015;48.106;-1.682;2023-02-28T19:51:33;2.03;;;1.77;;
25139;SDS011;39015;48.106;-1.682;2023-02-28T19:54:04;2.55;;;1.30;;
25139;SDS011;39015;48.106;-1.682;2023-02-28T19:56:32;4.10;;;1.50;;
25139;SDS011;39015;48.106;-1.682;2023-02-28T19:59:01;3.53;;;1.33;;
25139;SDS011;39015;48.106;-1.682;2023-02-28T20:01:29;1.35;;;1.25;;
25139;SDS011;39015;48.106;-1.682;2023-02-28T20:03:58;1.85;;;1.42;;
25139;SDS011;39015;48.106;-1.682;2023-02-28T20:06:29;1.42;;;1.30;;
25139;SDS011;39015;48.106;-1.682;2023-02-28T20:08:56;2.42;;;1.25;;
25139;SDS011;39015;48.106;-1.682;2023-02-28T20:11:24;1.52;;;1.35;;
25139;SDS011;39015;48.106;-1.682;2023-02-28T20:13:52;1.35;;;1.10;;
25139;SDS011;39015;48.106;-1.682;2023-02-28T20:16:19;2.38;;;1.42;;
25139;SDS011;39015;48.106;-1.682;2023-02-28T20:18:48;1.05;;;0.90;;
25139;SDS011;39015;48.106;-1.682;2023-02-28T20:21:17;1.73;;;0.95;;
25139;SDS011;39015;48.106;-1.682;2023-02-28T20:23:46;1.85;;;1.27;;
25139;SDS011;39015;48.106;-1.682;2023-02-28T20:26:14;2.22;;;1.45;;
25139;SDS011;39015;48.106;-1.682;2023-02-28T20:28:44;1.30;;;1.17;;
25139;SDS011;39015;48.106;-1.682;2023-02-28T20:31:12;1.45;;;0.90;;
25139;SDS011;39015;48.106;-1.682;2023-02-28T20:33:42;0.88;;;0.88;;
25139;SDS011;39015;48.106;-1.682;2023-02-28T20:36:12;1.77;;;1.20;;
25139;SDS011;39015;48.106;-1.682;2023-02-28T20:38:42;1.20;;;1.10;;
25139;SDS011;39015;48.106;-1.682;2023-02-28T20:41:09;1.40;;;1.30;;
25139;SDS011;39015;48.106;-1.682;2023-02-28T20:43:38;1.23;;;1.13;;
25139;SDS011;39015;48.106;-1.682;2023-02-28T20:46:05;1.77;;;1.40;;
25139;SDS011;39015;48.106;-1.682;2023-02-28T20:48:32;2.35;;;1.58;;
25139;SDS011;39015;48.106;-1.682;2023-02-28T20:51:00;1.13;;;1.02;;
25139;SDS011;39015;48.106;-1.682;2023-02-28T20:53:29;1.70;;;1.20;;
25139;SDS011;39015;48.106;-1.682;2023-02-28T20:55:59;1.70;;;1.58;;
25139;SDS011;39015;48.106;-1.682;2023-02-28T20:58:28;3.00;;;1.60;;
25139;SDS011;39015;48.106;-1.682;2023-02-28T21:00:58;1.75;;;1.48;;
25139;SDS011;39015;48.106;-1.682;2023-02-28T21:03:25;1.50;;;1.40;;
25139;SDS011;39015;48.106;-1.682;2023-02-28T21:05:57;3.67;;;1.67;;
25139;SDS011;39015;48.106;-1.682;2023-02-28T21:08:25;1.67;;;1.30;;
25139;SDS011;39015;48.106;-1.682;2023-02-28T21:10:52;1.88;;;1.25;;
25139;SDS011;39015;48.106;-1.682;2023-02-28T21:13:20;1.45;;;1.27;;
25139;SDS011;39015;48.106;-1.682;2023-02-28T21:15:47;3.15;;;1.60;;
25139;SDS011;39015;48.106;-1.682;2023-02-28T21:18:14;2.65;;;1.48;;
25139;SDS011;39015;48.106;-1.682;2023-02-28T21:20:42;2.25;;;1.48;;
25139;SDS011;39015;48.106;-1.682;2023-02-28T21:23:09;4.35;;;1.33;;
25139;SDS011;39015;48.106;-1.682;2023-02-28T21:25:36;3.42;;;2.50;;
25139;SDS011;39015;48.106;-1.682;2023-02-28T21:28:03;3.80;;;2.50;;
